Forfar, United Kingdom
Current Conditions -  °F | °C
As of 12:50 PM on Saturday 20 Dec 2014 (Local Time) from EGPN Reporting Station
Clear Clear  
Wind Chill: 40°   Ceiling: Unl
Heat Index: 46°   Visibility: 6mi
Dew Point: 34°   Wind: 16mph
Humidity: 62%   Direction: 290°WNW
Pressure: 30.03"   Gusts: NA
Location:  56.64°N, 2.89°W
Report Text: EGPN 201250Z 29014KT CAVOK 08/01 Q1017
Loading
Personal Weather Stations






























Interactive Weather Map New forecast layout! Learn more

10-Day Weather Forecast

Advertisements
Track Severe Weather on mobile